createdAt,value
2019-04-05T00:01:27.590Z,44.29
2019-04-05T00:03:59.365Z,44.24
2019-04-05T00:06:31.098Z,44.24
2019-04-05T00:09:04.603Z,44.26
2019-04-05T00:11:36.497Z,44.08
2019-04-05T00:14:08.428Z,44.05
2019-04-05T00:16:40.236Z,43.90
2019-04-05T00:19:11.965Z,43.85
2019-04-05T00:21:43.673Z,43.85
2019-04-05T00:24:15.439Z,43.88
2019-04-05T00:26:47.229Z,43.88
2019-04-05T00:29:18.999Z,43.93
2019-04-05T00:31:50.781Z,44.12
2019-04-05T00:34:22.451Z,44.22
2019-04-05T00:36:54.164Z,44.13
2019-04-05T00:39:25.966Z,44.28
2019-04-05T00:41:57.678Z,44.11
2019-04-05T00:44:29.509Z,44.58
2019-04-05T00:47:01.292Z,44.71
2019-04-05T00:49:33.012Z,44.59
2019-04-05T00:52:05.132Z,44.28
2019-04-05T00:54:36.907Z,44.34
2019-04-05T00:57:08.554Z,44.76
2019-04-05T00:59:40.277Z,44.66
2019-04-05T01:02:12.058Z,44.39
2019-04-05T01:04:43.777Z,43.92
2019-04-05T01:07:15.487Z,43.92
2019-04-05T01:09:47.162Z,44.12
2019-04-05T01:12:18.995Z,44.09
2019-04-05T01:14:50.727Z,44.49
2019-04-05T01:17:25.021Z,44.49
2019-04-05T01:19:56.434Z,44.46
2019-04-05T01:22:28.851Z,44.46
2019-04-05T01:25:03.641Z,44.54
2019-04-05T01:27:35.686Z,44.66
2019-04-05T01:30:08.050Z,44.76
2019-04-05T01:32:39.823Z,44.56
2019-04-05T01:35:11.632Z,44.99
2019-04-05T01:37:43.457Z,44.70
2019-04-05T01:40:15.082Z,44.83
2019-04-05T01:42:46.707Z,44.83
2019-04-05T01:45:18.409Z,44.99
2019-04-05T01:47:50.085Z,45.07
2019-04-05T01:50:21.802Z,45.00
2019-04-05T01:52:53.406Z,44.84
2019-04-05T01:55:25.121Z,44.71
2019-04-05T01:57:56.902Z,44.86
2019-04-05T02:00:28.703Z,44.92
2019-04-05T02:03:00.386Z,45.08
2019-04-05T02:05:32.099Z,44.95
2019-04-05T02:08:03.874Z,44.97
2019-04-05T02:10:35.781Z,44.97
2019-04-05T02:13:07.448Z,45.39
2019-04-05T02:15:39.208Z,45.39
2019-04-05T02:18:11.145Z,45.52
2019-04-05T02:20:44.054Z,45.37
2019-04-05T02:23:15.805Z,45.30
2019-04-05T02:25:47.527Z,45.52
2019-04-05T02:28:19.227Z,45.50
2019-04-05T02:30:51.006Z,45.48
2019-04-05T02:33:22.690Z,45.59
2019-04-05T02:35:54.316Z,45.75
2019-04-05T02:38:25.992Z,45.87
2019-04-05T02:40:58.836Z,46.05
2019-04-05T02:43:30.882Z,45.88
2019-04-05T02:46:02.887Z,45.95
2019-04-05T02:48:35.482Z,45.80
2019-04-05T02:51:07.448Z,45.93
2019-04-05T02:53:39.211Z,46.27
2019-04-05T02:56:11.142Z,46.35
2019-04-05T02:58:42.876Z,46.58
2019-04-05T03:01:14.682Z,46.92
2019-04-05T03:03:46.429Z,46.70
2019-04-05T03:06:18.104Z,47.04
2019-04-05T03:08:49.886Z,47.58
2019-04-05T03:11:21.496Z,47.68
2019-04-05T03:13:54.656Z,48.00
2019-04-05T03:16:40.030Z,48.29
2019-04-05T03:19:05.814Z,48.09
2019-04-05T03:21:39.203Z,48.57
2019-04-05T03:24:13.373Z,48.71
2019-04-05T03:26:50.548Z,48.52
2019-04-05T03:29:22.325Z,49.01
2019-04-05T03:31:54.216Z,49.26
2019-04-05T03:34:25.992Z,49.23
2019-04-05T03:36:57.714Z,49.46
2019-04-05T03:39:29.453Z,49.47
2019-04-05T03:42:01.180Z,49.24
2019-04-05T03:44:33.019Z,49.62
2019-04-05T03:47:04.946Z,49.63
2019-04-05T03:49:36.679Z,49.75
2019-04-05T03:52:08.419Z,50.10
2019-04-05T03:54:40.024Z,50.23
2019-04-05T03:57:11.778Z,50.30
2019-04-05T03:59:43.506Z,50.45
2019-04-05T04:02:15.357Z,50.52
2019-04-05T04:04:47.100Z,50.81
2019-04-05T04:07:18.959Z,50.93
2019-04-05T04:09:50.576Z,51.53
2019-04-05T04:12:22.271Z,51.25
2019-04-05T04:14:53.989Z,51.41
2019-04-05T04:17:25.631Z,51.71
2019-04-05T04:19:57.516Z,51.81
2019-04-05T04:22:29.725Z,51.85
2019-04-05T04:25:01.487Z,52.04
2019-04-05T04:27:33.280Z,52.00
2019-04-05T04:30:05.179Z,52.43
2019-04-05T04:32:36.959Z,52.50
2019-04-05T04:35:08.686Z,52.16
2019-04-05T04:37:40.474Z,52.67
2019-04-05T04:40:12.177Z,52.84
2019-04-05T04:42:43.960Z,52.67
2019-04-05T04:45:15.670Z,52.59
2019-04-05T04:47:47.462Z,52.44
2019-04-05T04:50:19.447Z,52.60
2019-04-05T04:52:51.248Z,52.77
2019-04-05T04:55:22.945Z,52.90
2019-04-05T04:57:54.753Z,52.76
2019-04-05T05:00:26.710Z,52.80
2019-04-05T05:02:58.516Z,53.11
2019-04-05T05:05:30.555Z,52.87
2019-04-05T05:08:03.196Z,53.07
2019-04-05T05:10:35.222Z,53.46
2019-04-05T05:13:06.842Z,53.53
2019-04-05T05:15:38.624Z,53.03
2019-04-05T05:18:10.432Z,53.12
2019-04-05T05:20:42.779Z,53.10
2019-04-05T05:23:14.646Z,52.78
2019-04-05T05:25:47.347Z,53.17
2019-04-05T05:28:19.126Z,52.51
2019-04-05T05:30:51.138Z,52.52
2019-04-05T05:33:22.857Z,52.11
2019-04-05T05:35:54.553Z,52.53
2019-04-05T05:38:26.219Z,52.31
2019-04-05T05:40:57.930Z,51.85
2019-04-05T05:43:29.611Z,52.32
2019-04-05T05:46:01.325Z,52.02
2019-04-05T05:48:33.113Z,51.89
2019-04-05T05:51:04.835Z,52.11
2019-04-05T05:53:36.557Z,52.34
2019-04-05T05:56:08.392Z,52.09
2019-04-05T05:58:40.100Z,51.91
2019-04-05T06:01:11.751Z,51.83
2019-04-05T06:03:43.472Z,51.28
2019-04-05T06:06:15.353Z,51.03
2019-04-05T06:08:47.040Z,50.59
2019-04-05T06:11:18.755Z,50.40
2019-04-05T06:13:50.548Z,49.66
2019-04-05T06:16:22.262Z,49.72
2019-04-05T06:18:53.887Z,49.53
2019-04-05T06:21:25.609Z,49.10
2019-04-05T06:23:57.321Z,49.10
2019-04-05T06:26:29.034Z,48.98
2019-04-05T06:29:00.759Z,48.71
2019-04-05T06:31:32.548Z,48.66
2019-04-05T06:34:04.236Z,48.67
2019-04-05T06:36:35.852Z,48.59
2019-04-05T06:39:08.731Z,47.97
2019-04-05T06:41:40.529Z,48.05
2019-04-05T06:44:12.260Z,48.04
2019-04-05T06:46:44.078Z,47.40
2019-04-05T06:49:15.751Z,47.17
2019-04-05T06:51:47.472Z,46.90
2019-04-05T06:54:19.188Z,46.84
2019-04-05T06:56:50.917Z,46.44
2019-04-05T06:59:22.589Z,46.34
2019-04-05T07:01:54.198Z,46.13
2019-04-05T07:04:25.966Z,45.63
2019-04-05T07:06:57.742Z,45.63
2019-04-05T07:09:29.419Z,46.00
2019-04-05T07:12:01.142Z,45.56
2019-04-05T07:14:32.942Z,45.27
2019-04-05T07:17:05.633Z,44.97
2019-04-05T07:19:38.430Z,44.72
2019-04-05T07:22:10.192Z,44.39
2019-04-05T07:24:41.987Z,43.75
2019-04-05T07:27:13.928Z,43.51
2019-04-05T07:29:45.731Z,42.76
2019-04-05T07:32:17.452Z,42.71
2019-04-05T07:34:49.879Z,42.48
2019-04-05T07:37:21.858Z,42.06
2019-04-05T07:39:53.560Z,41.71
2019-04-05T07:42:25.339Z,40.60
2019-04-05T07:45:01.646Z,40.89
2019-04-05T07:47:35.340Z,41.33
2019-04-05T07:50:07.875Z,40.28
2019-04-05T07:52:41.448Z,40.09
2019-04-05T07:55:13.962Z,39.58
2019-04-05T07:57:45.851Z,39.75
2019-04-05T08:00:43.302Z,39.85
2019-04-05T08:03:15.103Z,39.36
2019-04-05T08:05:46.878Z,39.14
2019-04-05T08:08:24.905Z,38.63
2019-04-05T08:10:59.034Z,38.32
2019-04-05T08:13:31.329Z,38.26
2019-04-05T08:16:03.329Z,38.89
2019-04-05T08:18:35.406Z,37.68
2019-04-05T08:21:07.332Z,37.94
2019-04-05T08:23:39.471Z,37.63
2019-04-05T08:26:13.061Z,37.32
2019-04-05T08:28:48.973Z,37.41
2019-04-05T08:31:21.171Z,37.76
2019-04-05T08:33:52.971Z,37.55
2019-04-05T08:36:24.730Z,37.00
2019-04-05T08:38:56.489Z,36.66
2019-04-05T08:41:28.227Z,36.77
2019-04-05T08:44:00.010Z,36.26
2019-04-05T08:46:31.728Z,36.04
2019-04-05T08:49:10.684Z,36.42
2019-04-05T08:51:37.087Z,35.67
2019-04-05T08:54:09.008Z,35.81
2019-04-05T08:56:40.719Z,35.45
2019-04-05T08:59:12.336Z,35.02
2019-04-05T09:01:44.173Z,34.82
2019-04-05T09:04:15.945Z,35.10
2019-04-05T09:06:47.738Z,34.88
2019-04-05T09:09:19.440Z,34.41
2019-04-05T09:11:51.142Z,34.14
2019-04-05T09:14:22.874Z,33.96
2019-04-05T09:16:54.642Z,33.92
2019-04-05T09:19:27.415Z,33.44
2019-04-05T09:21:59.126Z,33.05
2019-04-05T09:24:30.852Z,33.10
2019-04-05T09:27:02.912Z,31.49
2019-04-05T09:29:34.701Z,30.91
2019-04-05T09:32:06.413Z,30.35
2019-04-05T09:34:38.343Z,30.97
2019-04-05T09:37:10.115Z,30.36
2019-04-05T09:39:42.033Z,30.31
2019-04-05T09:42:13.805Z,30.01
2019-04-05T09:44:45.530Z,30.60
2019-04-05T09:47:17.243Z,31.08
2019-04-05T09:49:48.954Z,31.29
2019-04-05T09:52:20.629Z,31.36
2019-04-05T09:54:52.342Z,31.89
2019-04-05T09:57:24.123Z,31.09
2019-04-05T09:59:55.862Z,31.11
2019-04-05T10:02:27.592Z,30.77
2019-04-05T10:04:59.280Z,30.67
2019-04-05T10:07:30.982Z,29.64
2019-04-05T10:10:02.692Z,30.13
2019-04-05T10:12:34.589Z,30.48
2019-04-05T10:15:06.587Z,30.18
2019-04-05T10:17:38.378Z,29.92
2019-04-05T10:20:10.158Z,29.65
2019-04-05T10:22:42.850Z,29.51
2019-04-05T10:25:14.635Z,30.20
2019-04-05T10:27:46.400Z,30.09
2019-04-05T10:30:18.207Z,29.55
2019-04-05T10:32:50.100Z,29.23
2019-04-05T10:35:21.873Z,28.31
2019-04-05T10:37:53.677Z,27.97
2019-04-05T10:40:25.514Z,27.96
2019-04-05T10:42:57.334Z,27.77
2019-04-05T10:45:29.027Z,27.73
2019-04-05T10:48:00.818Z,27.30
2019-04-05T10:50:32.620Z,26.77
2019-04-05T10:53:04.316Z,26.51
2019-04-05T10:55:38.967Z,25.38
2019-04-05T10:58:10.838Z,25.00
2019-04-05T11:00:42.702Z,25.33
2019-04-05T11:03:14.478Z,24.90
2019-04-05T11:05:49.103Z,24.31
2019-04-05T11:08:19.552Z,24.86
2019-04-05T11:10:51.153Z,24.16
2019-04-05T11:13:23.931Z,24.19
2019-04-05T11:15:55.731Z,24.10
2019-04-05T11:18:27.419Z,23.66
2019-04-05T11:20:59.095Z,23.83
2019-04-05T11:23:30.718Z,24.12
2019-04-05T11:26:02.440Z,24.64
2019-04-05T11:28:34.369Z,24.97
2019-04-05T11:31:06.202Z,24.85
2019-04-05T11:33:37.977Z,24.49
2019-04-05T11:36:11.579Z,24.16
2019-04-05T11:38:43.485Z,23.81
2019-04-05T11:41:15.192Z,23.38
2019-04-05T11:43:46.985Z,23.74
2019-04-05T11:46:18.691Z,23.62
2019-04-05T11:48:51.364Z,23.35
2019-04-05T11:51:23.070Z,22.16
2019-04-05T11:53:54.785Z,22.99
2019-04-05T11:56:26.491Z,23.15
2019-04-05T11:58:58.269Z,22.88
2019-04-05T12:01:38.212Z,22.95
2019-04-05T12:04:10.589Z,22.54
2019-04-05T12:06:42.304Z,22.64
2019-04-05T12:09:14.099Z,22.57
2019-04-05T12:11:46.515Z,23.13
2019-04-05T12:14:29.649Z,24.43
2019-04-05T12:16:52.816Z,24.71
2019-04-05T12:19:24.611Z,24.18
2019-04-05T12:21:56.376Z,24.06
2019-04-05T12:24:28.161Z,24.10
2019-04-05T12:26:59.936Z,23.48
2019-04-05T12:29:31.717Z,23.11
2019-04-05T12:32:03.327Z,23.29
2019-04-05T12:34:35.136Z,23.63
2019-04-05T12:37:07.277Z,23.88
2019-04-05T12:39:39.264Z,23.80
2019-04-05T12:42:12.148Z,24.16
2019-04-05T12:44:45.590Z,23.78
2019-04-05T12:47:17.355Z,24.11
2019-04-05T12:49:49.076Z,24.76
2019-04-05T12:52:22.875Z,24.30
2019-04-05T12:54:54.946Z,24.58
2019-04-05T12:57:27.878Z,24.06
2019-04-05T13:00:00.144Z,23.64
2019-04-05T13:02:33.951Z,23.53
2019-04-05T13:05:06.444Z,23.79
2019-04-05T13:07:38.351Z,23.64
2019-04-05T13:10:10.335Z,23.17
2019-04-05T13:12:42.230Z,23.74
2019-04-05T13:15:17.113Z,23.14
2019-04-05T13:17:47.921Z,23.34
2019-04-05T13:20:20.149Z,23.84
2019-04-05T13:22:52.300Z,23.65
2019-04-05T13:25:24.208Z,23.70
2019-04-05T13:27:56.142Z,23.87
2019-04-05T13:30:28.109Z,24.08
2019-04-05T13:33:01.056Z,24.03
2019-04-05T13:35:33.645Z,24.24
2019-04-05T13:38:05.712Z,24.23
2019-04-05T13:40:38.040Z,23.26
2019-04-05T13:43:10.109Z,23.15
2019-04-05T13:45:43.055Z,22.37
2019-04-05T13:48:15.624Z,22.96
2019-04-05T13:50:51.348Z,23.04
2019-04-05T13:53:23.476Z,22.86
2019-04-05T13:55:55.352Z,22.39
2019-04-05T13:58:27.226Z,22.23
2019-04-05T14:00:58.943Z,22.51
2019-04-05T14:03:30.853Z,22.75
2019-04-05T14:06:02.724Z,22.76
2019-04-05T14:08:36.699Z,22.75
2019-04-05T14:11:08.361Z,23.03
2019-04-05T14:13:42.956Z,22.79
2019-04-05T14:16:17.877Z,22.66
2019-04-05T14:18:50.441Z,22.90
2019-04-05T14:21:22.536Z,23.13
2019-04-05T14:23:55.116Z,23.21
2019-04-05T14:26:27.389Z,23.61
2019-04-05T14:29:03.490Z,23.37
2019-04-05T14:31:34.320Z,24.02
2019-04-05T14:34:06.478Z,24.27
2019-04-05T14:36:38.495Z,24.55
2019-04-05T14:39:10.828Z,24.45
2019-04-05T14:41:42.803Z,24.82
2019-04-05T14:44:15.155Z,24.90
2019-04-05T14:46:48.360Z,24.99
2019-04-05T14:49:20.738Z,24.64
2019-04-05T14:51:56.340Z,25.07
2019-04-05T14:54:26.573Z,24.93
2019-04-05T14:57:02.435Z,24.91
2019-04-05T14:59:32.962Z,25.12
2019-04-05T15:02:05.140Z,25.11
2019-04-05T15:04:37.179Z,25.40
2019-04-05T15:07:08.956Z,25.47
2019-04-05T15:09:40.669Z,25.29
2019-04-05T15:12:12.553Z,25.25
2019-04-05T15:14:44.153Z,25.15
2019-04-05T15:17:15.879Z,24.87
2019-04-05T15:19:47.688Z,24.89
2019-04-05T15:22:19.683Z,25.32
2019-04-05T15:24:51.466Z,25.15
2019-04-05T15:27:23.837Z,24.61
2019-04-05T15:29:56.282Z,24.33
2019-04-05T15:32:28.232Z,24.16
2019-04-05T15:35:00.031Z,24.16
2019-04-05T15:37:32.616Z,23.88
2019-04-05T15:40:05.503Z,23.18
2019-04-05T15:42:37.856Z,22.15
2019-04-05T15:45:09.834Z,21.96
2019-04-05T15:47:42.174Z,22.22
2019-04-05T15:50:14.499Z,22.94
2019-04-05T15:52:46.870Z,23.49
2019-04-05T15:55:20.098Z,29.27
2019-04-05T15:57:52.938Z,33.69
2019-04-05T16:00:40.725Z,35.67
2019-04-05T16:03:12.798Z,33.80
2019-04-05T16:05:44.874Z,36.81
2019-04-05T16:08:18.163Z,33.06
2019-04-05T16:10:51.264Z,38.30
2019-04-05T16:13:24.620Z,43.17
2019-04-05T16:15:56.580Z,43.05
2019-04-05T16:18:28.364Z,46.53
2019-04-05T16:21:00.103Z,46.12
2019-04-05T16:23:31.929Z,44.15
2019-04-05T16:26:04.155Z,45.08
2019-04-05T16:28:36.827Z,45.25
2019-04-05T16:31:08.910Z,46.30
2019-04-05T16:33:40.834Z,47.42
2019-04-05T16:36:12.767Z,46.79
2019-04-05T16:38:44.456Z,46.58
2019-04-05T16:41:16.246Z,48.01
2019-04-05T16:43:47.916Z,47.37
2019-04-05T16:46:19.706Z,47.62
2019-04-05T16:48:52.152Z,48.64
2019-04-05T16:51:25.260Z,44.80
2019-04-05T16:54:00.639Z,46.11
2019-04-05T16:56:33.374Z,44.85
2019-04-05T16:59:05.144Z,44.23
2019-04-05T17:01:36.949Z,44.36
2019-04-05T17:04:09.456Z,45.10
2019-04-05T17:06:41.965Z,45.10
2019-04-05T17:09:13.659Z,44.22
2019-04-05T17:11:45.960Z,44.59
2019-04-05T17:14:17.762Z,45.53
2019-04-05T17:16:50.627Z,44.67
2019-04-05T17:19:23.416Z,43.79
2019-04-05T17:21:56.033Z,42.36
2019-04-05T17:24:28.419Z,44.08
2019-04-05T17:27:00.372Z,43.07
2019-04-05T17:29:32.352Z,43.97
2019-04-05T17:32:04.063Z,44.36
2019-04-05T17:34:35.892Z,44.10
2019-04-05T17:37:08.121Z,44.98
2019-04-05T17:39:40.232Z,45.20
2019-04-05T17:42:12.021Z,45.98
2019-04-05T17:44:43.794Z,45.47
2019-04-05T17:47:15.540Z,44.66
2019-04-05T17:49:47.340Z,45.14
2019-04-05T17:52:19.117Z,44.77
2019-04-05T17:54:51.827Z,45.60
2019-04-05T17:57:23.614Z,44.98
2019-04-05T17:59:55.429Z,44.10
2019-04-05T18:02:28.480Z,44.32
2019-04-05T18:05:00.294Z,44.74
2019-04-05T18:07:32.099Z,44.14
2019-04-05T18:10:03.904Z,44.53
2019-04-05T18:12:36.105Z,44.70
2019-04-05T18:15:08.309Z,44.45
2019-04-05T18:17:40.262Z,44.22
2019-04-05T18:20:12.053Z,44.41
2019-04-05T18:22:45.308Z,44.40
2019-04-05T18:25:20.143Z,44.28
2019-04-05T18:27:54.575Z,43.32
2019-04-05T18:30:26.917Z,44.20
2019-04-05T18:32:58.747Z,43.85
2019-04-05T18:35:33.478Z,43.87
2019-04-05T18:38:05.462Z,44.21
2019-04-05T18:40:40.333Z,43.84
2019-04-05T18:43:11.632Z,43.63
2019-04-05T18:45:43.356Z,43.45
2019-04-05T18:48:15.139Z,44.70
2019-04-05T18:50:48.553Z,43.73
2019-04-05T18:53:20.566Z,42.97
2019-04-05T18:55:52.985Z,43.77
2019-04-05T18:58:24.973Z,44.04
2019-04-05T19:00:58.429Z,43.85
2019-04-05T19:03:32.677Z,43.86
2019-04-05T19:06:04.934Z,43.83
2019-04-05T19:08:39.890Z,44.25
2019-04-05T19:11:10.591Z,44.12
2019-04-05T19:13:42.413Z,44.24
2019-04-05T19:16:14.205Z,44.01
2019-04-05T19:18:46.017Z,44.67
2019-04-05T19:21:17.817Z,43.66
2019-04-05T19:23:51.134Z,43.54
2019-04-05T19:26:23.179Z,43.65
2019-04-05T19:28:55.034Z,43.57
2019-04-05T19:49:23.534Z,43.18
2019-04-05T19:51:55.218Z,42.51
2019-04-05T19:54:27.022Z,42.25
2019-04-05T19:56:58.738Z,42.61
2019-04-05T19:59:30.521Z,43.03
2019-04-05T20:02:02.322Z,41.95
2019-04-05T20:04:34.120Z,41.98
2019-04-05T20:07:06.018Z,42.69
2019-04-05T20:09:37.808Z,42.85
2019-04-05T20:12:09.572Z,42.85
2019-04-05T20:14:42.284Z,43.10
2019-04-05T20:17:13.893Z,43.08
2019-04-05T20:19:45.779Z,43.30
2019-04-05T20:22:17.487Z,42.50
2019-04-05T20:24:49.198Z,42.66
2019-04-05T20:27:20.902Z,42.96
2019-04-05T20:29:52.640Z,43.37
2019-04-05T20:32:24.367Z,42.83
2019-04-05T20:34:56.041Z,43.41
2019-04-05T20:37:27.839Z,43.00
2019-04-05T20:39:59.622Z,42.70
2019-04-05T20:42:32.506Z,42.21
2019-04-05T20:45:04.270Z,42.40
2019-04-05T20:47:36.052Z,43.25
2019-04-05T20:50:08.312Z,42.77
2019-04-05T20:52:40.318Z,42.75
2019-04-05T20:55:12.005Z,42.54
2019-04-05T20:57:43.774Z,42.70
2019-04-05T21:00:17.552Z,42.96
2019-04-05T21:02:49.325Z,42.52
2019-04-05T21:05:25.591Z,42.81
2019-04-05T21:07:54.496Z,42.73
2019-04-05T21:10:26.291Z,43.05
2019-04-05T21:12:58.114Z,44.22
2019-04-05T21:15:29.806Z,43.96
2019-04-05T21:18:01.526Z,42.97
2019-04-05T21:20:33.302Z,43.25
2019-04-05T21:23:04.917Z,43.69
2019-04-05T21:25:37.317Z,43.21
2019-04-05T21:28:09.047Z,43.14
2019-04-05T21:30:40.825Z,43.01
2019-04-05T21:33:12.659Z,43.56
2019-04-05T21:35:46.016Z,43.12
2019-04-05T21:38:17.988Z,44.01
2019-04-05T21:40:49.710Z,44.40
2019-04-05T21:43:21.442Z,44.75
2019-04-05T21:45:53.161Z,43.60
2019-04-05T21:48:24.998Z,44.12
2019-04-05T21:50:56.780Z,44.74
2019-04-05T21:53:28.572Z,44.53
2019-04-05T21:56:00.366Z,44.46
2019-04-05T21:58:31.980Z,44.28
2019-04-05T22:01:05.838Z,44.69
2019-04-05T22:03:38.464Z,45.08
2019-04-05T22:06:10.399Z,44.93
2019-04-05T22:08:42.190Z,45.21
2019-04-05T22:11:13.896Z,45.48
2019-04-05T22:13:45.825Z,45.59
2019-04-05T22:16:17.609Z,45.18
2019-04-05T22:18:49.303Z,45.77
2019-04-05T22:21:21.089Z,45.66
2019-04-05T22:23:52.885Z,45.66
2019-04-05T22:26:24.503Z,45.71
2019-04-05T22:28:56.291Z,46.26
2019-04-05T22:31:28.090Z,46.35
2019-04-05T22:33:59.917Z,46.26
2019-04-05T22:36:31.839Z,46.32
2019-04-05T22:39:03.714Z,45.84
2019-04-05T22:41:37.299Z,46.40
2019-04-05T22:44:09.085Z,46.61
2019-04-05T22:46:40.870Z,46.61
2019-04-05T22:49:12.594Z,46.87
2019-04-05T22:51:44.420Z,46.44
2019-04-05T22:54:16.229Z,46.89
2019-04-05T22:56:48.025Z,46.44
2019-04-05T22:59:19.759Z,47.09
2019-04-05T23:01:51.555Z,47.32
2019-04-05T23:04:23.326Z,47.63
2019-04-05T23:06:55.128Z,47.41
2019-04-05T23:09:27.027Z,47.82
2019-04-05T23:11:58.917Z,47.38
2019-04-05T23:14:30.725Z,47.73
2019-04-05T23:17:02.458Z,47.73
2019-04-05T23:19:35.164Z,47.86
2019-04-05T23:22:07.366Z,47.69
2019-04-05T23:24:39.294Z,47.52
2019-04-05T23:27:11.017Z,48.18
2019-04-05T23:29:42.844Z,47.79
2019-04-05T23:32:15.664Z,47.93
2019-04-05T23:34:47.502Z,47.86
2019-04-05T23:37:19.221Z,48.14
2019-04-05T23:39:50.940Z,48.14
2019-04-05T23:42:22.728Z,48.43
2019-04-05T23:44:54.523Z,48.24
2019-04-05T23:47:26.252Z,48.33
2019-04-05T23:49:57.972Z,48.51
2019-04-05T23:52:30.090Z,48.84
2019-04-05T23:55:02.886Z,48.38
2019-04-05T23:57:34.683Z,48.51
